Flight Information

DEPARTURE
LAS VEGAS, NV
Elevation:
2181
Runways:
1L/19R - 8988x150 - CONC-G
1R/19L - 9771x150 - CONC-G
8L/26R - 14515x150 - CONC-G
8R/26L - 10526x150 - CONC-E
Active PE Departure:
19L - 19R - 26R
Current PE ATIS:
N
Altimeter:
30.07
Remarks:
V F R DEPARTURES CONTACT CLEARANCE DELIVERY, ADVISE ON COURSE HEADING, ALTITUDE, AND IF FLIGHT FOLLOWING IS REQUESTED.
ATIS:
132.4 702-736-0950
Clearance Delivery:
118
Ground:
121.9 (West of Rwy 01R-19L) 121.1 (East of Rwy 01R-19L)
Tower:
LAS VEGAS TOWER 119.9
DESTINATION
SAN DIEGO, CA
Elevation:
16
TPA:
1016 (est.)
Runways:
9/27 - 9400x200 - ASPH-CONC-E
Active PE Arriving:
27
Active PE Approach:
LOCALIZER AND R NAVV RUNWAY 2 7 APPROACH IN USE.
Current PE ATIS:
K
Altimeter:
30.04
Remarks:
V F R DEPARTURES CONTACT CLEARANCE DELIVERY, ADVISE ON COURSE HEADING, ALTITUDE, AND IF FLIGHT FOLLOWING IS REQUESTED.
ATIS:
134.8 619-298-0997
Tower:
LINDBERGH TOWER 118.3
Ground:
123.9


224.7 NM207° True-14° Var192° HDG

Flight Plan:
(click to file on line)

1. Type
2. Aircraft Identification
3. Aircraft Type / Special Equipment
4. True Airspeed
kts
5. Departure Airport
(ICAO code)
6. Arriving Airport
(ICAO code)
7. Cruising Altitude
ft
8. Alternate Airport
(ICAO code)
9. Route of Flight
10. Remarks


00:00:00 Departure ATIS: Destination ATIS:

Clearance Limit:
Route:
Altitude: Expect in minutes
Frequency:
Transponder: (7500 Hijack / 7600 Lost Comms / 7700 Emergency)


KLAS 121756Z 06004KT 10SM CLR 28/M10 A3007 RMK AO2 SLP160 T02781100 10283 20200 50002
Time: 2021-05-12T17:56:00Z
1620842470
Winds: 60 @ 4 kts
Visibility: 10.0 sm
Clouds (AGL): CLR
Temperature: 27.8 C
Dew Point: -10.0 C
Pressure: 30.070866 in Hgbr

KSAN 121751Z VRB05KT 10SM BKN017 19/13 A3004 RMK AO2 SLP173 T01940128 10200 20172 51006
Time: 2021-05-12T17:51:00Z
1620842470
Winds: variable
Visibility: 10.0 sm
Clouds (AGL): BKN 1700
Temperature: 19.4 C
Dew Point: 12.8 C
Pressure: 30.041338 in Hgbr


Notes:

Data extracted from FAA Digital Chart Supplement. Effective: 0901Z Thursday, APR 22, 2021 to 0901Z Thursday, JUN 17, 2021
Current ATIS data is provided courtisy of PilotEdge.